createdAt,value
2018-10-07T00:01:31.102Z,65.70
2018-10-07T00:06:34.819Z,65.70
2018-10-07T00:11:38.556Z,66.10
2018-10-07T00:16:42.323Z,66.20
2018-10-07T00:21:46.011Z,66.60
2018-10-07T00:26:49.732Z,67.00
2018-10-07T00:31:58.879Z,67.10
2018-10-07T00:37:02.571Z,67.10
2018-10-07T00:42:06.339Z,68.70
2018-10-07T00:47:10.067Z,69.60
2018-10-07T00:52:13.823Z,70.60
2018-10-07T00:57:17.579Z,70.60
2018-10-07T01:02:21.303Z,71.30
2018-10-07T01:07:25.051Z,71.20
2018-10-07T01:12:28.800Z,71.20
2018-10-07T01:17:32.568Z,71.40
2018-10-07T01:22:36.315Z,71.80
2018-10-07T01:27:40.167Z,71.50
2018-10-07T01:32:43.859Z,71.80
2018-10-07T01:37:47.894Z,72.00
2018-10-07T01:42:51.615Z,72.00
2018-10-07T01:47:55.340Z,72.10
2018-10-07T01:52:59.079Z,72.00
2018-10-07T01:58:02.813Z,72.30
2018-10-07T02:03:06.548Z,72.60
2018-10-07T02:08:10.270Z,72.80
2018-10-07T02:13:13.996Z,72.90
2018-10-07T02:18:17.955Z,73.20
2018-10-07T02:23:21.687Z,73.20
2018-10-07T02:28:25.391Z,73.30
2018-10-07T02:33:29.187Z,73.60
2018-10-07T02:38:32.909Z,73.30
2018-10-07T02:43:36.659Z,73.80
2018-10-07T02:48:40.369Z,72.80
2018-10-07T02:53:44.076Z,72.60
2018-10-07T02:58:47.884Z,73.00
2018-10-07T03:03:51.611Z,72.00
2018-10-07T03:08:55.367Z,71.10
2018-10-07T03:13:59.082Z,70.20
2018-10-07T03:19:03.117Z,70.70
2018-10-07T03:24:07.117Z,70.30
2018-10-07T03:29:10.844Z,71.00
2018-10-07T03:34:14.551Z,70.60
2018-10-07T03:39:18.255Z,71.90
2018-10-07T03:44:21.972Z,71.00
2018-10-07T03:49:25.697Z,70.70
2018-10-07T03:54:29.415Z,70.70
2018-10-07T03:59:33.136Z,71.20
2018-10-07T04:04:36.859Z,70.40
2018-10-07T04:09:40.603Z,71.30
2018-10-07T04:14:44.319Z,69.60
2018-10-07T04:19:48.027Z,69.40
2018-10-07T04:24:51.735Z,68.80
2018-10-07T04:29:55.433Z,70.70
2018-10-07T04:34:59.155Z,70.60
2018-10-07T04:40:02.956Z,70.80
2018-10-07T04:45:06.589Z,70.90
2018-10-07T04:50:10.328Z,69.60
2018-10-07T04:55:14.032Z,70.40
2018-10-07T05:00:17.784Z,70.10
2018-10-07T05:05:21.484Z,70.20
2018-10-07T05:10:58.164Z,68.90
2018-10-07T05:16:02.906Z,69.30
2018-10-07T05:21:06.718Z,69.50
2018-10-07T05:26:10.398Z,70.30
2018-10-07T05:31:14.128Z,70.20
2018-10-07T05:36:17.851Z,70.00
2018-10-07T05:41:21.589Z,70.60
2018-10-07T05:46:25.311Z,70.20
2018-10-07T05:51:29.025Z,69.50
2018-10-07T05:56:32.719Z,70.70
2018-10-07T06:01:40.865Z,70.60
2018-10-07T06:06:44.597Z,70.60
2018-10-07T06:11:48.311Z,69.40
2018-10-07T06:16:52.037Z,69.90
2018-10-07T06:21:55.740Z,69.50
2018-10-07T06:26:59.464Z,69.50
2018-10-07T06:32:03.196Z,70.40
2018-10-07T06:37:06.985Z,70.50
2018-10-07T06:42:10.686Z,70.60
2018-10-07T06:47:14.413Z,69.90
2018-10-07T06:52:18.144Z,70.20
2018-10-07T06:57:21.870Z,70.20
2018-10-07T07:02:25.571Z,70.30
2018-10-07T07:07:29.295Z,70.40
2018-10-07T07:12:33.016Z,70.80
2018-10-07T07:17:36.753Z,69.10
2018-10-07T07:22:40.465Z,69.90
2018-10-07T07:27:44.185Z,69.40
2018-10-07T07:32:47.943Z,69.90
2018-10-07T07:37:51.676Z,68.40
2018-10-07T07:42:55.397Z,69.20
2018-10-07T07:47:59.119Z,69.50
2018-10-07T07:53:02.848Z,69.90
2018-10-07T07:58:06.558Z,69.50
2018-10-07T08:03:10.292Z,69.40
2018-10-07T08:08:14.004Z,69.80
2018-10-07T08:13:17.728Z,69.20
2018-10-07T08:18:21.431Z,68.70
2018-10-07T08:23:25.294Z,69.30
2018-10-07T08:28:28.995Z,68.50
2018-10-07T08:33:32.832Z,68.60
2018-10-07T08:38:36.671Z,68.40
2018-10-07T08:43:40.395Z,68.60
2018-10-07T08:48:44.119Z,68.00
2018-10-07T08:53:47.844Z,67.90
2018-10-07T08:58:51.751Z,67.50
2018-10-07T09:03:55.464Z,67.20
2018-10-07T09:08:59.267Z,66.50
2018-10-07T09:14:02.968Z,66.00
2018-10-07T09:19:06.684Z,66.10
2018-10-07T09:24:10.399Z,65.50
2018-10-07T09:29:14.123Z,65.80
2018-10-07T09:34:17.833Z,65.60
2018-10-07T09:39:21.652Z,64.90
2018-10-07T09:44:25.252Z,65.30
2018-10-07T09:49:28.980Z,65.40
2018-10-07T09:54:32.692Z,64.80
2018-10-07T09:59:36.427Z,63.80
2018-10-07T10:04:40.274Z,62.60
2018-10-07T10:09:43.877Z,63.00
2018-10-07T10:14:47.594Z,62.00
2018-10-07T10:20:00.870Z,61.60
2018-10-07T10:25:11.445Z,61.40
2018-10-07T10:30:25.620Z,60.00
2018-10-07T10:35:36.647Z,59.50
2018-10-07T10:40:46.975Z,59.80
2018-10-07T10:46:09.460Z,59.60
2018-10-07T10:51:52.739Z,59.00
2018-10-07T10:58:02.663Z,59.20
2018-10-07T11:03:16.439Z,59.10
2018-10-07T11:08:32.639Z,58.00
2018-10-07T11:14:13.397Z,57.90
2018-10-07T11:19:22.102Z,57.60
2018-10-07T11:24:34.507Z,57.20
2018-10-07T11:30:01.179Z,57.50
2018-10-07T11:35:23.036Z,58.00
2018-10-07T11:40:36.340Z,58.00
2018-10-07T11:45:45.184Z,55.60
2018-10-07T11:50:59.821Z,54.40
2018-10-07T11:56:03.539Z,56.30
2018-10-07T12:01:07.290Z,56.90
2018-10-07T12:06:10.988Z,53.70
2018-10-07T12:11:14.728Z,52.60
2018-10-07T12:16:18.498Z,54.00
2018-10-07T12:21:22.199Z,53.60
2018-10-07T12:26:25.923Z,52.80
2018-10-07T12:31:29.697Z,53.90
2018-10-07T12:36:33.391Z,53.80
2018-10-07T12:41:37.107Z,54.80
2018-10-07T12:46:40.844Z,56.20
2018-10-07T12:51:44.975Z,55.30
2018-10-07T12:56:48.899Z,55.60
2018-10-07T13:01:52.627Z,54.70
2018-10-07T13:06:56.367Z,54.80
2018-10-07T13:12:00.079Z,54.10
2018-10-07T13:17:03.791Z,54.50
2018-10-07T13:22:07.503Z,56.10
2018-10-07T13:27:11.220Z,55.90
2018-10-07T13:32:15.041Z,54.80
2018-10-07T13:37:18.740Z,54.80
2018-10-07T13:42:22.451Z,53.60
2018-10-07T13:47:26.179Z,54.20
2018-10-07T13:52:29.892Z,54.90
2018-10-07T13:57:33.608Z,53.60
2018-10-07T14:02:37.327Z,53.80
2018-10-07T14:07:41.075Z,52.50
2018-10-07T14:12:44.812Z,53.10
2018-10-07T14:17:48.522Z,53.30
2018-10-07T14:22:52.271Z,55.90
2018-10-07T14:27:55.996Z,54.50
2018-10-07T14:32:59.699Z,55.10
2018-10-07T14:38:03.424Z,54.40
2018-10-07T14:43:07.150Z,52.20
2018-10-07T14:48:10.884Z,55.40
2018-10-07T14:53:14.596Z,54.80
2018-10-07T14:58:18.319Z,54.10
2018-10-07T15:03:22.048Z,53.00
2018-10-07T15:08:25.791Z,53.50
2018-10-07T15:13:29.492Z,53.70
2018-10-07T15:18:33.208Z,55.10
2018-10-07T15:23:36.943Z,54.40
2018-10-07T15:28:40.655Z,53.40
2018-10-07T15:33:44.364Z,53.50
2018-10-07T15:38:48.092Z,53.50
2018-10-07T15:43:51.812Z,54.00
2018-10-07T15:48:55.522Z,53.50
2018-10-07T15:53:59.312Z,53.80
2018-10-07T15:59:03.100Z,53.70
2018-10-07T16:04:06.816Z,54.30
2018-10-07T16:09:10.824Z,53.60
2018-10-07T16:14:14.619Z,54.00
2018-10-07T16:19:18.359Z,53.90
2018-10-07T16:24:22.194Z,53.40
2018-10-07T16:29:25.960Z,53.20
2018-10-07T16:34:29.676Z,53.30
2018-10-07T16:39:33.956Z,53.70
2018-10-07T16:44:37.675Z,53.70
2018-10-07T16:49:41.399Z,53.60
2018-10-07T16:54:45.168Z,54.00
2018-10-07T16:59:48.914Z,54.10
2018-10-07T17:04:52.627Z,54.70
2018-10-07T17:09:56.349Z,54.80
2018-10-07T17:15:00.062Z,55.50
2018-10-07T17:20:03.764Z,55.80
2018-10-07T17:25:07.482Z,55.90
2018-10-07T17:30:11.192Z,56.50
2018-10-07T17:35:14.936Z,56.00
2018-10-07T17:40:18.684Z,56.10
2018-10-07T17:45:22.740Z,56.90
2018-10-07T17:50:26.458Z,57.20
2018-10-07T17:55:30.167Z,58.00
2018-10-07T18:00:33.897Z,57.70
2018-10-07T18:05:37.692Z,58.00
2018-10-07T18:10:41.436Z,58.00
2018-10-07T18:15:45.140Z,58.20
2018-10-07T18:20:48.983Z,58.30
2018-10-07T18:25:52.693Z,58.60
2018-10-07T18:30:56.436Z,58.60
2018-10-07T18:36:00.244Z,58.80
2018-10-07T18:41:03.963Z,58.70
2018-10-07T18:46:07.684Z,58.80
2018-10-07T18:51:11.512Z,58.90
2018-10-07T18:56:15.252Z,58.80
2018-10-07T19:01:18.984Z,58.70
2018-10-07T19:06:22.727Z,58.70
2018-10-07T19:11:26.452Z,59.30
2018-10-07T19:16:30.139Z,59.30
2018-10-07T19:21:33.847Z,59.40
2018-10-07T19:26:37.568Z,59.30
2018-10-07T19:31:41.295Z,59.30
2018-10-07T19:36:45.076Z,59.40
2018-10-07T19:41:48.727Z,59.50
2018-10-07T19:46:52.459Z,59.60
2018-10-07T19:51:56.187Z,59.60
2018-10-07T19:57:00.031Z,59.70
2018-10-07T20:02:03.768Z,59.90
2018-10-07T20:07:07.504Z,59.40
2018-10-07T20:12:11.247Z,59.80
2018-10-07T20:17:15.043Z,59.90
2018-10-07T20:22:19.016Z,60.00
2018-10-07T20:27:22.768Z,60.00
2018-10-07T20:32:26.484Z,60.10
2018-10-07T20:37:30.227Z,60.20
2018-10-07T20:42:34.070Z,60.00
2018-10-07T20:47:37.787Z,59.70
2018-10-07T20:52:41.507Z,60.20
2018-10-07T20:57:45.366Z,60.00
2018-10-07T21:02:49.180Z,60.30
2018-10-07T21:07:53.004Z,60.40
2018-10-07T21:12:56.723Z,61.50
2018-10-07T21:18:00.771Z,60.30
2018-10-07T21:23:04.687Z,60.30
2018-10-07T21:28:08.494Z,60.40
2018-10-07T21:33:12.215Z,60.70
2018-10-07T21:38:15.940Z,60.50
2018-10-07T21:43:19.664Z,60.60
2018-10-07T21:48:23.406Z,60.50
2018-10-07T21:53:27.138Z,60.60
2018-10-07T21:58:30.854Z,60.80
2018-10-07T22:03:34.655Z,60.90
2018-10-07T22:08:38.416Z,60.70
2018-10-07T22:13:42.148Z,60.90
2018-10-07T22:18:45.923Z,61.90
2018-10-07T22:23:50.465Z,61.00
2018-10-07T22:28:54.210Z,61.00
2018-10-07T22:33:57.962Z,61.40
2018-10-07T22:39:01.688Z,61.80
2018-10-07T22:44:05.667Z,61.30
2018-10-07T22:49:09.390Z,61.00
2018-10-07T22:54:13.141Z,61.80
2018-10-07T22:59:17.295Z,61.80
2018-10-07T23:04:20.971Z,61.60
2018-10-07T23:09:24.727Z,61.70
2018-10-07T23:14:28.426Z,61.70
2018-10-07T23:19:32.380Z,61.90
2018-10-07T23:24:36.088Z,62.30
2018-10-07T23:29:39.824Z,61.90
2018-10-07T23:34:43.528Z,61.60
2018-10-07T23:39:47.262Z,61.60
2018-10-07T23:44:52.327Z,61.70
2018-10-07T23:49:56.078Z,61.80
2018-10-07T23:54:59.775Z,61.90
